sensor_id;sensor_type;location;lat;lon;timestamp;temperature;humidity
11934;DHT22;6026;48.784;9.198;2022-11-20T00:01:40;4.90;99.90
11934;DHT22;6026;48.784;9.198;2022-11-20T00:04:07;4.80;99.90
11934;DHT22;6026;48.784;9.198;2022-11-20T00:06:33;4.90;99.90
11934;DHT22;6026;48.784;9.198;2022-11-20T00:09:00;4.90;99.90
11934;DHT22;6026;48.784;9.198;2022-11-20T00:11:28;4.80;99.90
11934;DHT22;6026;48.784;9.198;2022-11-20T00:13:55;4.80;99.90
11934;DHT22;6026;48.784;9.198;2022-11-20T00:16:23;4.80;99.90
11934;DHT22;6026;48.784;9.198;2022-11-20T00:18:50;4.70;99.90
11934;DHT22;6026;48.784;9.198;2022-11-20T00:21:18;4.80;99.90
11934;DHT22;6026;48.784;9.198;2022-11-20T00:23:45;4.80;99.90
11934;DHT22;6026;48.784;9.198;2022-11-20T00:26:13;4.80;99.90
11934;DHT22;6026;48.784;9.198;2022-11-20T00:28:40;4.80;99.90
11934;DHT22;6026;48.784;9.198;2022-11-20T00:31:11;4.80;99.90
11934;DHT22;6026;48.784;9.198;2022-11-20T00:33:36;4.80;99.90
11934;DHT22;6026;48.784;9.198;2022-11-20T00:36:13;4.80;99.90
11934;DHT22;6026;48.784;9.198;2022-11-20T00:38:39;4.80;99.90
11934;DHT22;6026;48.784;9.198;2022-11-20T00:41:07;4.90;99.90
11934;DHT22;6026;48.784;9.198;2022-11-20T00:43:33;4.90;99.90
11934;DHT22;6026;48.784;9.198;2022-11-20T00:46:03;4.90;99.90
11934;DHT22;6026;48.784;9.198;2022-11-20T00:48:29;4.90;99.90
11934;DHT22;6026;48.784;9.198;2022-11-20T00:50:56;4.90;99.90
11934;DHT22;6026;48.784;9.198;2022-11-20T00:53:23;5.00;99.90
11934;DHT22;6026;48.784;9.198;2022-11-20T00:56:00;5.00;99.90
11934;DHT22;6026;48.784;9.198;2022-11-20T00:58:30;5.00;99.90
11934;DHT22;6026;48.784;9.198;2022-11-20T01:01:10;5.10;99.90
11934;DHT22;6026;48.784;9.198;2022-11-20T01:03:39;5.10;99.90
11934;DHT22;6026;48.784;9.198;2022-11-20T01:06:16;5.10;99.90
11934;DHT22;6026;48.784;9.198;2022-11-20T01:08:43;5.10;99.90
11934;DHT22;6026;48.784;9.198;2022-11-20T01:11:15;5.10;99.90
11934;DHT22;6026;48.784;9.198;2022-11-20T01:13:42;5.10;99.90
11934;DHT22;6026;48.784;9.198;2022-11-20T01:16:13;5.20;99.90
11934;DHT22;6026;48.784;9.198;2022-11-20T01:18:42;5.20;99.90
11934;DHT22;6026;48.784;9.198;2022-11-20T01:21:13;5.20;99.90
11934;DHT22;6026;48.784;9.198;2022-11-20T01:23:41;5.20;99.90
11934;DHT22;6026;48.784;9.198;2022-11-20T01:26:10;5.20;99.90
11934;DHT22;6026;48.784;9.198;2022-11-20T01:28:36;5.20;99.90
11934;DHT22;6026;48.784;9.198;2022-11-20T01:31:10;5.30;99.90
11934;DHT22;6026;48.784;9.198;2022-11-20T01:33:36;5.30;99.90
11934;DHT22;6026;48.784;9.198;2022-11-20T01:36:06;5.30;99.90
11934;DHT22;6026;48.784;9.198;2022-11-20T01:38:31;5.30;99.90
11934;DHT22;6026;48.784;9.198;2022-11-20T01:40:57;5.30;99.90
11934;DHT22;6026;48.784;9.198;2022-11-20T01:43:23;5.30;99.90
11934;DHT22;6026;48.784;9.198;2022-11-20T01:46:17;5.30;99.90
11934;DHT22;6026;48.784;9.198;2022-11-20T01:48:51;5.30;99.90
11934;DHT22;6026;48.784;9.198;2022-11-20T01:54:00;5.20;99.90
11934;DHT22;6026;48.784;9.198;2022-11-20T01:56:27;5.30;99.90
11934;DHT22;6026;48.784;9.198;2022-11-20T01:58:56;5.30;99.90
11934;DHT22;6026;48.784;9.198;2022-11-20T02:01:23;5.30;99.90
11934;DHT22;6026;48.784;9.198;2022-11-20T02:03:49;5.20;99.90
11934;DHT22;6026;48.784;9.198;2022-11-20T02:06:35;5.30;99.90
11934;DHT22;6026;48.784;9.198;2022-11-20T02:09:02;5.20;99.90
11934;DHT22;6026;48.784;9.198;2022-11-20T02:11:29;5.10;99.90
11934;DHT22;6026;48.784;9.198;2022-11-20T02:13:55;5.10;99.90
11934;DHT22;6026;48.784;9.198;2022-11-20T02:16:44;5.10;99.90
11934;DHT22;6026;48.784;9.198;2022-11-20T02:19:29;5.10;99.90
11934;DHT22;6026;48.784;9.198;2022-11-20T02:24:22;5.10;99.90
11934;DHT22;6026;48.784;9.198;2022-11-20T02:26:50;5.10;99.90
11934;DHT22;6026;48.784;9.198;2022-11-20T02:32:02;5.10;99.90
11934;DHT22;6026;48.784;9.198;2022-11-20T02:34:28;5.10;99.90
11934;DHT22;6026;48.784;9.198;2022-11-20T02:36:55;5.10;99.90
11934;DHT22;6026;48.784;9.198;2022-11-20T02:39:24;5.10;99.90
11934;DHT22;6026;48.784;9.198;2022-11-20T02:41:52;5.10;99.90
11934;DHT22;6026;48.784;9.198;2022-11-20T02:44:18;5.10;99.90
11934;DHT22;6026;48.784;9.198;2022-11-20T02:46:44;5.10;99.90
11934;DHT22;6026;48.784;9.198;2022-11-20T02:49:09;5.10;99.90
11934;DHT22;6026;48.784;9.198;2022-11-20T02:51:35;5.10;99.90
11934;DHT22;6026;48.784;9.198;2022-11-20T02:54:01;5.20;99.90
11934;DHT22;6026;48.784;9.198;2022-11-20T02:56:27;5.20;99.90
11934;DHT22;6026;48.784;9.198;2022-11-20T02:58:53;5.20;99.90
11934;DHT22;6026;48.784;9.198;2022-11-20T03:01:18;5.20;99.90
11934;DHT22;6026;48.784;9.198;2022-11-20T03:03:44;5.20;99.90
11934;DHT22;6026;48.784;9.198;2022-11-20T03:06:09;5.20;99.90
11934;DHT22;6026;48.784;9.198;2022-11-20T03:08:35;5.20;99.90
11934;DHT22;6026;48.784;9.198;2022-11-20T03:11:06;5.30;99.90
11934;DHT22;6026;48.784;9.198;2022-11-20T03:13:32;5.20;99.90
11934;DHT22;6026;48.784;9.198;2022-11-20T03:15:58;5.30;99.90
11934;DHT22;6026;48.784;9.198;2022-11-20T03:18:24;5.30;99.90
11934;DHT22;6026;48.784;9.198;2022-11-20T03:20:49;5.30;99.90
11934;DHT22;6026;48.784;9.198;2022-11-20T03:23:15;5.30;99.90
11934;DHT22;6026;48.784;9.198;2022-11-20T03:25:41;5.30;99.90
11934;DHT22;6026;48.784;9.198;2022-11-20T03:28:06;5.30;99.90
11934;DHT22;6026;48.784;9.198;2022-11-20T03:30:32;5.30;99.90
11934;DHT22;6026;48.784;9.198;2022-11-20T03:32:58;5.30;99.90
11934;DHT22;6026;48.784;9.198;2022-11-20T03:35:23;5.30;99.90
11934;DHT22;6026;48.784;9.198;2022-11-20T03:37:49;5.30;99.90
11934;DHT22;6026;48.784;9.198;2022-11-20T03:40:14;5.30;99.90
11934;DHT22;6026;48.784;9.198;2022-11-20T03:42:40;5.30;99.90
11934;DHT22;6026;48.784;9.198;2022-11-20T03:45:16;5.20;99.90
11934;DHT22;6026;48.784;9.198;2022-11-20T03:47:43;5.20;99.90
11934;DHT22;6026;48.784;9.198;2022-11-20T03:50:10;5.20;99.90
11934;DHT22;6026;48.784;9.198;2022-11-20T03:52:37;5.20;99.90
11934;DHT22;6026;48.784;9.198;2022-11-20T03:55:04;5.20;99.90
11934;DHT22;6026;48.784;9.198;2022-11-20T03:57:30;5.20;99.90
11934;DHT22;6026;48.784;9.198;2022-11-20T03:59:55;5.10;99.90
11934;DHT22;6026;48.784;9.198;2022-11-20T04:02:21;5.10;99.90
11934;DHT22;6026;48.784;9.198;2022-11-20T04:04:47;5.10;99.90
11934;DHT22;6026;48.784;9.198;2022-11-20T04:07:12;5.10;99.90
11934;DHT22;6026;48.784;9.198;2022-11-20T04:09:38;5.20;99.90
11934;DHT22;6026;48.784;9.198;2022-11-20T04:12:04;5.10;99.90
11934;DHT22;6026;48.784;9.198;2022-11-20T04:14:29;5.10;99.90
11934;DHT22;6026;48.784;9.198;2022-11-20T04:16:55;5.10;99.90
11934;DHT22;6026;48.784;9.198;2022-11-20T04:19:20;5.10;99.90
11934;DHT22;6026;48.784;9.198;2022-11-20T04:21:46;5.10;99.90
11934;DHT22;6026;48.784;9.198;2022-11-20T04:24:12;5.10;99.90
11934;DHT22;6026;48.784;9.198;2022-11-20T04:26:38;5.10;99.90
11934;DHT22;6026;48.784;9.198;2022-11-20T04:29:04;5.10;99.90
11934;DHT22;6026;48.784;9.198;2022-11-20T04:31:32;5.10;99.90
11934;DHT22;6026;48.784;9.198;2022-11-20T04:34:02;5.10;99.90
11934;DHT22;6026;48.784;9.198;2022-11-20T04:36:28;5.10;99.90
11934;DHT22;6026;48.784;9.198;2022-11-20T04:38:59;5.10;99.90
11934;DHT22;6026;48.784;9.198;2022-11-20T04:41:28;5.10;99.90
11934;DHT22;6026;48.784;9.198;2022-11-20T04:43:56;5.20;99.90
11934;DHT22;6026;48.784;9.198;2022-11-20T04:46:25;5.10;99.90
11934;DHT22;6026;48.784;9.198;2022-11-20T04:48:51;5.20;99.90
11934;DHT22;6026;48.784;9.198;2022-11-20T04:51:17;5.10;99.90
11934;DHT22;6026;48.784;9.198;2022-11-20T04:53:43;5.10;99.90
11934;DHT22;6026;48.784;9.198;2022-11-20T04:56:10;5.00;99.90
11934;DHT22;6026;48.784;9.198;2022-11-20T04:58:37;5.00;99.90
11934;DHT22;6026;48.784;9.198;2022-11-20T05:01:05;5.00;99.90
11934;DHT22;6026;48.784;9.198;2022-11-20T05:03:31;5.00;99.90
11934;DHT22;6026;48.784;9.198;2022-11-20T05:06:00;5.00;99.90
11934;DHT22;6026;48.784;9.198;2022-11-20T05:08:27;5.00;99.90
11934;DHT22;6026;48.784;9.198;2022-11-20T05:10:52;5.10;99.90
11934;DHT22;6026;48.784;9.198;2022-11-20T05:13:18;5.10;99.90
11934;DHT22;6026;48.784;9.198;2022-11-20T05:15:43;5.10;99.90
11934;DHT22;6026;48.784;9.198;2022-11-20T05:18:09;5.10;99.90
11934;DHT22;6026;48.784;9.198;2022-11-20T05:20:34;5.10;99.90
11934;DHT22;6026;48.784;9.198;2022-11-20T05:23:02;5.10;99.90
11934;DHT22;6026;48.784;9.198;2022-11-20T05:25:27;5.10;99.90
11934;DHT22;6026;48.784;9.198;2022-11-20T05:27:53;5.20;99.90
11934;DHT22;6026;48.784;9.198;2022-11-20T05:30:19;5.20;99.90
11934;DHT22;6026;48.784;9.198;2022-11-20T05:32:45;5.20;99.90
11934;DHT22;6026;48.784;9.198;2022-11-20T05:35:10;5.20;99.90
11934;DHT22;6026;48.784;9.198;2022-11-20T05:37:36;5.20;99.90
11934;DHT22;6026;48.784;9.198;2022-11-20T05:40:01;5.30;99.90
11934;DHT22;6026;48.784;9.198;2022-11-20T05:42:30;5.30;99.90
11934;DHT22;6026;48.784;9.198;2022-11-20T05:45:00;5.30;99.90
11934;DHT22;6026;48.784;9.198;2022-11-20T05:47:26;5.30;99.90
11934;DHT22;6026;48.784;9.198;2022-11-20T05:49:53;5.40;99.90
11934;DHT22;6026;48.784;9.198;2022-11-20T05:52:18;5.30;99.90
11934;DHT22;6026;48.784;9.198;2022-11-20T05:54:44;5.30;99.90
11934;DHT22;6026;48.784;9.198;2022-11-20T05:57:09;5.30;99.90
11934;DHT22;6026;48.784;9.198;2022-11-20T05:59:35;5.30;99.90
11934;DHT22;6026;48.784;9.198;2022-11-20T06:02:01;5.30;99.90
11934;DHT22;6026;48.784;9.198;2022-11-20T06:04:26;5.40;99.90
11934;DHT22;6026;48.784;9.198;2022-11-20T06:06:52;5.40;99.90
11934;DHT22;6026;48.784;9.198;2022-11-20T06:09:17;5.40;99.90
11934;DHT22;6026;48.784;9.198;2022-11-20T06:11:43;5.40;99.90
11934;DHT22;6026;48.784;9.198;2022-11-20T06:14:09;5.40;99.90
11934;DHT22;6026;48.784;9.198;2022-11-20T06:16:34;5.40;99.90
11934;DHT22;6026;48.784;9.198;2022-11-20T06:19:00;5.40;99.90
11934;DHT22;6026;48.784;9.198;2022-11-20T06:21:25;5.40;99.90
11934;DHT22;6026;48.784;9.198;2022-11-20T06:23:52;5.50;99.90
11934;DHT22;6026;48.784;9.198;2022-11-20T06:26:20;5.50;99.90
11934;DHT22;6026;48.784;9.198;2022-11-20T06:28:47;5.50;99.90
11934;DHT22;6026;48.784;9.198;2022-11-20T06:31:14;5.50;99.90
11934;DHT22;6026;48.784;9.198;2022-11-20T06:33:41;5.50;99.90
11934;DHT22;6026;48.784;9.198;2022-11-20T06:36:07;5.50;99.90
11934;DHT22;6026;48.784;9.198;2022-11-20T06:38:32;5.50;99.90
11934;DHT22;6026;48.784;9.198;2022-11-20T06:40:58;5.50;99.90
11934;DHT22;6026;48.784;9.198;2022-11-20T06:43:24;5.50;99.90
11934;DHT22;6026;48.784;9.198;2022-11-20T06:45:57;5.50;99.90
11934;DHT22;6026;48.784;9.198;2022-11-20T06:48:25;5.50;99.90
11934;DHT22;6026;48.784;9.198;2022-11-20T06:50:51;5.50;99.90
11934;DHT22;6026;48.784;9.198;2022-11-20T06:53:16;5.60;99.90
11934;DHT22;6026;48.784;9.198;2022-11-20T06:55:46;5.60;99.90
11934;DHT22;6026;48.784;9.198;2022-11-20T06:58:13;5.60;99.90
11934;DHT22;6026;48.784;9.198;2022-11-20T07:00:39;5.60;99.90
11934;DHT22;6026;48.784;9.198;2022-11-20T07:03:06;5.60;99.90
11934;DHT22;6026;48.784;9.198;2022-11-20T07:05:32;5.60;99.90
11934;DHT22;6026;48.784;9.198;2022-11-20T07:07:58;5.70;99.90
11934;DHT22;6026;48.784;9.198;2022-11-20T07:10:25;5.70;99.90
11934;DHT22;6026;48.784;9.198;2022-11-20T07:12:52;5.60;99.90
11934;DHT22;6026;48.784;9.198;2022-11-20T07:15:18;5.60;99.90
11934;DHT22;6026;48.784;9.198;2022-11-20T07:17:44;5.60;99.90
11934;DHT22;6026;48.784;9.198;2022-11-20T07:20:10;5.60;99.90
11934;DHT22;6026;48.784;9.198;2022-11-20T07:22:35;5.70;99.90
11934;DHT22;6026;48.784;9.198;2022-11-20T07:25:01;5.70;99.90
11934;DHT22;6026;48.784;9.198;2022-11-20T07:27:27;5.70;99.90
11934;DHT22;6026;48.784;9.198;2022-11-20T07:29:53;5.70;99.90
11934;DHT22;6026;48.784;9.198;2022-11-20T07:32:19;5.80;99.90
11934;DHT22;6026;48.784;9.198;2022-11-20T07:34:44;5.80;99.90
11934;DHT22;6026;48.784;9.198;2022-11-20T07:37:10;5.80;99.90
11934;DHT22;6026;48.784;9.198;2022-11-20T07:39:35;5.90;99.90
11934;DHT22;6026;48.784;9.198;2022-11-20T07:42:01;5.90;99.90
11934;DHT22;6026;48.784;9.198;2022-11-20T07:44:27;5.90;99.90
11934;DHT22;6026;48.784;9.198;2022-11-20T07:46:52;5.90;99.90
11934;DHT22;6026;48.784;9.198;2022-11-20T07:49:18;6.00;99.90
11934;DHT22;6026;48.784;9.198;2022-11-20T07:51:43;6.00;99.90
11934;DHT22;6026;48.784;9.198;2022-11-20T07:54:09;6.10;99.90
11934;DHT22;6026;48.784;9.198;2022-11-20T07:56:34;6.10;99.90
11934;DHT22;6026;48.784;9.198;2022-11-20T07:59:00;6.10;99.90
11934;DHT22;6026;48.784;9.198;2022-11-20T08:01:25;6.20;99.90
11934;DHT22;6026;48.784;9.198;2022-11-20T08:03:51;6.20;99.90
11934;DHT22;6026;48.784;9.198;2022-11-20T08:06:17;6.20;99.90
11934;DHT22;6026;48.784;9.198;2022-11-20T08:08:43;6.20;99.90
11934;DHT22;6026;48.784;9.198;2022-11-20T08:11:09;6.30;99.90
11934;DHT22;6026;48.784;9.198;2022-11-20T08:13:53;6.30;99.90
11934;DHT22;6026;48.784;9.198;2022-11-20T08:16:40;6.30;99.90
11934;DHT22;6026;48.784;9.198;2022-11-20T08:19:07;6.40;99.90
11934;DHT22;6026;48.784;9.198;2022-11-20T08:21:33;6.40;99.90
11934;DHT22;6026;48.784;9.198;2022-11-20T08:23:59;6.40;99.90
11934;DHT22;6026;48.784;9.198;2022-11-20T08:26:25;6.40;99.90
11934;DHT22;6026;48.784;9.198;2022-11-20T08:28:58;6.40;99.90
11934;DHT22;6026;48.784;9.198;2022-11-20T08:31:25;6.50;99.90
11934;DHT22;6026;48.784;9.198;2022-11-20T08:33:51;6.50;99.90
11934;DHT22;6026;48.784;9.198;2022-11-20T08:36:18;6.50;99.90
11934;DHT22;6026;48.784;9.198;2022-11-20T08:38:51;6.60;99.90
11934;DHT22;6026;48.784;9.198;2022-11-20T08:41:17;6.60;99.90
11934;DHT22;6026;48.784;9.198;2022-11-20T08:43:49;6.70;99.90
11934;DHT22;6026;48.784;9.198;2022-11-20T08:46:16;6.70;99.90
11934;DHT22;6026;48.784;9.198;2022-11-20T08:48:41;6.70;99.90
11934;DHT22;6026;48.784;9.198;2022-11-20T08:51:07;6.70;99.90
11934;DHT22;6026;48.784;9.198;2022-11-20T08:53:33;6.80;99.90
11934;DHT22;6026;48.784;9.198;2022-11-20T08:55:59;6.90;99.90
11934;DHT22;6026;48.784;9.198;2022-11-20T08:58:28;7.00;99.90
11934;DHT22;6026;48.784;9.198;2022-11-20T09:00:53;7.20;99.90
11934;DHT22;6026;48.784;9.198;2022-11-20T09:03:19;7.50;99.90
11934;DHT22;6026;48.784;9.198;2022-11-20T09:05:45;7.60;99.90
11934;DHT22;6026;48.784;9.198;2022-11-20T09:08:11;7.70;99.90
11934;DHT22;6026;48.784;9.198;2022-11-20T09:10:36;7.70;99.90
11934;DHT22;6026;48.784;9.198;2022-11-20T09:13:05;7.70;99.90
11934;DHT22;6026;48.784;9.198;2022-11-20T09:15:30;7.60;99.90
11934;DHT22;6026;48.784;9.198;2022-11-20T09:18:01;7.60;99.90
11934;DHT22;6026;48.784;9.198;2022-11-20T09:20:29;7.60;99.90
11934;DHT22;6026;48.784;9.198;2022-11-20T09:22:55;7.50;99.90
11934;DHT22;6026;48.784;9.198;2022-11-20T09:25:21;7.50;99.90
11934;DHT22;6026;48.784;9.198;2022-11-20T09:27:46;7.60;99.90
11934;DHT22;6026;48.784;9.198;2022-11-20T09:30:15;7.50;99.90
11934;DHT22;6026;48.784;9.198;2022-11-20T09:32:42;7.50;99.90
11934;DHT22;6026;48.784;9.198;2022-11-20T09:35:08;7.50;99.90
11934;DHT22;6026;48.784;9.198;2022-11-20T09:37:34;7.50;99.90
11934;DHT22;6026;48.784;9.198;2022-11-20T09:39:59;7.60;99.90
11934;DHT22;6026;48.784;9.198;2022-11-20T09:48:55;7.50;99.90
11934;DHT22;6026;48.784;9.198;2022-11-20T09:56:53;7.40;99.90
11934;DHT22;6026;48.784;9.198;2022-11-20T09:59:41;7.50;99.90
11934;DHT22;6026;48.784;9.198;2022-11-20T10:05:16;7.50;99.90
11934;DHT22;6026;48.784;9.198;2022-11-20T10:29:45;7.50;99.90
11934;DHT22;6026;48.784;9.198;2022-11-20T10:32:20;7.40;99.90
11934;DHT22;6026;48.784;9.198;2022-11-20T10:34:54;7.40;99.90
11934;DHT22;6026;48.784;9.198;2022-11-20T10:37:26;7.30;99.90
11934;DHT22;6026;48.784;9.198;2022-11-20T10:42:49;7.10;99.90
11934;DHT22;6026;48.784;9.198;2022-11-20T10:48:01;6.90;99.90
11934;DHT22;6026;48.784;9.198;2022-11-20T10:50:36;6.80;99.90
11934;DHT22;6026;48.784;9.198;2022-11-20T10:55:53;6.70;99.90
11934;DHT22;6026;48.784;9.198;2022-11-20T11:01:16;6.70;99.90
11934;DHT22;6026;48.784;9.198;2022-11-20T11:03:43;6.70;99.90
11934;DHT22;6026;48.784;9.198;2022-11-20T11:08:50;6.60;99.90
11934;DHT22;6026;48.784;9.198;2022-11-20T11:11:24;6.60;99.90
11934;DHT22;6026;48.784;9.198;2022-11-20T11:13:51;6.60;99.90
11934;DHT22;6026;48.784;9.198;2022-11-20T11:16:22;6.60;99.90
11934;DHT22;6026;48.784;9.198;2022-11-20T11:18:48;6.60;99.90
11934;DHT22;6026;48.784;9.198;2022-11-20T11:21:21;6.60;99.90
11934;DHT22;6026;48.784;9.198;2022-11-20T11:23:58;6.70;99.90
11934;DHT22;6026;48.784;9.198;2022-11-20T11:26:24;6.70;99.90
11934;DHT22;6026;48.784;9.198;2022-11-20T11:28:59;6.70;99.90
11934;DHT22;6026;48.784;9.198;2022-11-20T11:31:25;6.80;99.90
11934;DHT22;6026;48.784;9.198;2022-11-20T11:33:51;6.90;99.90
11934;DHT22;6026;48.784;9.198;2022-11-20T11:36:21;7.40;99.90
11934;DHT22;6026;48.784;9.198;2022-11-20T11:38:51;8.00;99.90
11934;DHT22;6026;48.784;9.198;2022-11-20T11:41:38;8.80;99.90
11934;DHT22;6026;48.784;9.198;2022-11-20T11:44:21;9.40;99.90
11934;DHT22;6026;48.784;9.198;2022-11-20T11:47:29;10.20;99.90
11934;DHT22;6026;48.784;9.198;2022-11-20T11:55:04;11.80;99.90
11934;DHT22;6026;48.784;9.198;2022-11-20T12:00:04;13.40;99.90
11934;DHT22;6026;48.784;9.198;2022-11-20T12:02:38;14.00;99.90
11934;DHT22;6026;48.784;9.198;2022-11-20T12:08:18;13.90;99.90
11934;DHT22;6026;48.784;9.198;2022-11-20T12:10:57;14.40;99.90
11934;DHT22;6026;48.784;9.198;2022-11-20T12:16:03;13.40;99.90
11934;DHT22;6026;48.784;9.198;2022-11-20T12:18:29;12.80;99.90
11934;DHT22;6026;48.784;9.198;2022-11-20T12:35:20;10.50;99.90
11934;DHT22;6026;48.784;9.198;2022-11-20T12:41:12;10.50;99.90
11934;DHT22;6026;48.784;9.198;2022-11-20T12:50:40;10.40;99.90
11934;DHT22;6026;48.784;9.198;2022-11-20T12:53:38;10.30;99.90
11934;DHT22;6026;48.784;9.198;2022-11-20T13:07:12;10.20;99.90
11934;DHT22;6026;48.784;9.198;2022-11-20T13:09:47;10.40;99.90
11934;DHT22;6026;48.784;9.198;2022-11-20T13:12:25;10.40;99.90
11934;DHT22;6026;48.784;9.198;2022-11-20T13:15:18;10.50;99.90
11934;DHT22;6026;48.784;9.198;2022-11-20T13:17:59;10.20;99.90
11934;DHT22;6026;48.784;9.198;2022-11-20T13:20:25;9.90;99.90
11934;DHT22;6026;48.784;9.198;2022-11-20T13:22:53;9.60;99.90
11934;DHT22;6026;48.784;9.198;2022-11-20T13:27:56;9.30;99.90
11934;DHT22;6026;48.784;9.198;2022-11-20T13:30:27;9.20;99.90
11934;DHT22;6026;48.784;9.198;2022-11-20T13:33:05;9.50;99.90
11934;DHT22;6026;48.784;9.198;2022-11-20T13:35:35;9.80;99.90
11934;DHT22;6026;48.784;9.198;2022-11-20T13:38:11;10.20;99.90
11934;DHT22;6026;48.784;9.198;2022-11-20T13:40:50;10.30;99.90
11934;DHT22;6026;48.784;9.198;2022-11-20T13:46:06;10.70;99.90
11934;DHT22;6026;48.784;9.198;2022-11-20T13:48:40;10.30;99.90
11934;DHT22;6026;48.784;9.198;2022-11-20T13:56:36;9.00;99.90
11934;DHT22;6026;48.784;9.198;2022-11-20T14:01:38;8.70;99.90
11934;DHT22;6026;48.784;9.198;2022-11-20T14:04:08;8.60;99.90
11934;DHT22;6026;48.784;9.198;2022-11-20T14:06:42;8.40;99.90
11934;DHT22;6026;48.784;9.198;2022-11-20T14:09:13;8.20;99.90
11934;DHT22;6026;48.784;9.198;2022-11-20T14:11:49;8.00;99.90
11934;DHT22;6026;48.784;9.198;2022-11-20T14:14:19;7.90;99.90
11934;DHT22;6026;48.784;9.198;2022-11-20T14:16:47;7.80;99.90
11934;DHT22;6026;48.784;9.198;2022-11-20T14:19:28;7.70;99.90
11934;DHT22;6026;48.784;9.198;2022-11-20T14:22:15;7.70;99.90
11934;DHT22;6026;48.784;9.198;2022-11-20T14:24:43;7.70;99.90
11934;DHT22;6026;48.784;9.198;2022-11-20T14:27:14;7.60;99.90
11934;DHT22;6026;48.784;9.198;2022-11-20T14:29:40;7.60;99.90
11934;DHT22;6026;48.784;9.198;2022-11-20T14:32:08;7.60;99.90
11934;DHT22;6026;48.784;9.198;2022-11-20T14:34:38;7.60;99.90
11934;DHT22;6026;48.784;9.198;2022-11-20T14:37:06;7.50;99.90
11934;DHT22;6026;48.784;9.198;2022-11-20T14:39:37;7.50;99.90
11934;DHT22;6026;48.784;9.198;2022-11-20T14:42:23;7.50;99.90
11934;DHT22;6026;48.784;9.198;2022-11-20T14:44:50;7.50;99.90
11934;DHT22;6026;48.784;9.198;2022-11-20T14:47:29;7.50;99.90
11934;DHT22;6026;48.784;9.198;2022-11-20T14:49:57;7.50;99.90
11934;DHT22;6026;48.784;9.198;2022-11-20T14:52:25;7.50;99.90
11934;DHT22;6026;48.784;9.198;2022-11-20T14:54:53;7.40;99.90
11934;DHT22;6026;48.784;9.198;2022-11-20T14:57:30;7.40;99.90
11934;DHT22;6026;48.784;9.198;2022-11-20T15:00:23;7.40;99.90
11934;DHT22;6026;48.784;9.198;2022-11-20T15:02:50;7.30;99.90
11934;DHT22;6026;48.784;9.198;2022-11-20T15:05:18;7.30;99.90
11934;DHT22;6026;48.784;9.198;2022-11-20T15:07:46;7.30;99.90
11934;DHT22;6026;48.784;9.198;2022-11-20T15:10:21;7.30;99.90
11934;DHT22;6026;48.784;9.198;2022-11-20T15:12:55;7.20;99.90
11934;DHT22;6026;48.784;9.198;2022-11-20T15:15:36;7.10;99.90
11934;DHT22;6026;48.784;9.198;2022-11-20T15:18:04;7.10;99.90
11934;DHT22;6026;48.784;9.198;2022-11-20T15:20:32;7.00;99.90
11934;DHT22;6026;48.784;9.198;2022-11-20T15:22:58;7.00;99.90
11934;DHT22;6026;48.784;9.198;2022-11-20T15:25:24;7.00;99.90
11934;DHT22;6026;48.784;9.198;2022-11-20T15:27:56;7.00;99.90
11934;DHT22;6026;48.784;9.198;2022-11-20T15:30:22;6.90;99.90
11934;DHT22;6026;48.784;9.198;2022-11-20T15:32:48;6.90;99.90
11934;DHT22;6026;48.784;9.198;2022-11-20T15:35:15;6.80;99.90
11934;DHT22;6026;48.784;9.198;2022-11-20T15:37:41;6.80;99.90
11934;DHT22;6026;48.784;9.198;2022-11-20T15:40:07;6.70;99.90
11934;DHT22;6026;48.784;9.198;2022-11-20T15:42:34;6.70;99.90
11934;DHT22;6026;48.784;9.198;2022-11-20T15:44:59;6.70;99.90
11934;DHT22;6026;48.784;9.198;2022-11-20T15:47:31;6.60;99.90
11934;DHT22;6026;48.784;9.198;2022-11-20T15:49:58;6.60;99.90
11934;DHT22;6026;48.784;9.198;2022-11-20T15:52:24;6.50;99.90
11934;DHT22;6026;48.784;9.198;2022-11-20T15:54:50;6.50;99.90
11934;DHT22;6026;48.784;9.198;2022-11-20T15:57:16;6.50;99.90
11934;DHT22;6026;48.784;9.198;2022-11-20T15:59:41;6.40;99.90
11934;DHT22;6026;48.784;9.198;2022-11-20T16:02:16;6.40;99.90
11934;DHT22;6026;48.784;9.198;2022-11-20T16:04:42;6.40;99.90
11934;DHT22;6026;48.784;9.198;2022-11-20T16:07:07;6.30;99.90
11934;DHT22;6026;48.784;9.198;2022-11-20T16:09:34;6.30;99.90
11934;DHT22;6026;48.784;9.198;2022-11-20T16:12:00;6.30;99.90
11934;DHT22;6026;48.784;9.198;2022-11-20T16:14:26;6.30;99.90
11934;DHT22;6026;48.784;9.198;2022-11-20T16:17:11;6.30;99.90
11934;DHT22;6026;48.784;9.198;2022-11-20T16:19:36;6.30;99.90
11934;DHT22;6026;48.784;9.198;2022-11-20T16:22:02;6.30;99.90
11934;DHT22;6026;48.784;9.198;2022-11-20T16:24:28;6.30;99.90
11934;DHT22;6026;48.784;9.198;2022-11-20T16:26:54;6.30;99.90
11934;DHT22;6026;48.784;9.198;2022-11-20T16:29:20;6.30;99.90
11934;DHT22;6026;48.784;9.198;2022-11-20T16:31:45;6.30;99.90
11934;DHT22;6026;48.784;9.198;2022-11-20T16:34:11;6.30;99.90
11934;DHT22;6026;48.784;9.198;2022-11-20T16:36:40;6.30;99.90
11934;DHT22;6026;48.784;9.198;2022-11-20T16:39:06;6.30;99.90
11934;DHT22;6026;48.784;9.198;2022-11-20T16:41:33;6.30;99.90
11934;DHT22;6026;48.784;9.198;2022-11-20T16:44:00;6.30;99.90
11934;DHT22;6026;48.784;9.198;2022-11-20T16:46:28;6.40;99.90
11934;DHT22;6026;48.784;9.198;2022-11-20T16:48:55;6.40;99.90
11934;DHT22;6026;48.784;9.198;2022-11-20T16:51:21;6.40;99.90
11934;DHT22;6026;48.784;9.198;2022-11-20T16:53:47;6.40;99.90
11934;DHT22;6026;48.784;9.198;2022-11-20T16:56:17;6.40;99.90
11934;DHT22;6026;48.784;9.198;2022-11-20T16:58:44;6.40;99.90
11934;DHT22;6026;48.784;9.198;2022-11-20T17:01:12;6.40;99.90
11934;DHT22;6026;48.784;9.198;2022-11-20T17:03:39;6.40;99.90
11934;DHT22;6026;48.784;9.198;2022-11-20T17:06:15;6.40;99.90
11934;DHT22;6026;48.784;9.198;2022-11-20T17:08:42;6.50;99.90
11934;DHT22;6026;48.784;9.198;2022-11-20T17:11:09;6.40;99.90
11934;DHT22;6026;48.784;9.198;2022-11-20T17:13:36;6.40;99.90
11934;DHT22;6026;48.784;9.198;2022-11-20T17:16:03;6.50;99.90
11934;DHT22;6026;48.784;9.198;2022-11-20T17:18:30;6.50;99.90
11934;DHT22;6026;48.784;9.198;2022-11-20T17:20:56;6.50;99.90
11934;DHT22;6026;48.784;9.198;2022-11-20T17:23:22;6.60;99.90
11934;DHT22;6026;48.784;9.198;2022-11-20T17:25:47;6.50;99.90
11934;DHT22;6026;48.784;9.198;2022-11-20T17:28:13;6.50;99.90
11934;DHT22;6026;48.784;9.198;2022-11-20T17:30:38;6.50;99.90
11934;DHT22;6026;48.784;9.198;2022-11-20T17:33:04;6.60;99.90
11934;DHT22;6026;48.784;9.198;2022-11-20T17:35:29;6.50;99.90
11934;DHT22;6026;48.784;9.198;2022-11-20T17:37:55;6.60;99.90
11934;DHT22;6026;48.784;9.198;2022-11-20T17:40:21;6.60;99.90
11934;DHT22;6026;48.784;9.198;2022-11-20T17:42:46;6.60;99.90
11934;DHT22;6026;48.784;9.198;2022-11-20T17:45:12;6.70;99.90
11934;DHT22;6026;48.784;9.198;2022-11-20T17:47:37;6.70;99.90
11934;DHT22;6026;48.784;9.198;2022-11-20T17:50:03;6.70;99.90
11934;DHT22;6026;48.784;9.198;2022-11-20T17:52:29;6.70;99.90
11934;DHT22;6026;48.784;9.198;2022-11-20T17:54:55;6.70;99.90
11934;DHT22;6026;48.784;9.198;2022-11-20T17:57:23;6.70;99.90
11934;DHT22;6026;48.784;9.198;2022-11-20T18:00:07;6.70;99.90
11934;DHT22;6026;48.784;9.198;2022-11-20T18:02:34;6.70;99.90
11934;DHT22;6026;48.784;9.198;2022-11-20T18:05:00;6.70;99.90
11934;DHT22;6026;48.784;9.198;2022-11-20T18:07:26;6.70;99.90
11934;DHT22;6026;48.784;9.198;2022-11-20T18:09:52;6.70;99.90